Terminal Aerodrome Forecast
Issued by NWS

Home | Current Version | Previous Version | Text Only | Print | Product List | Glossary Off
Versions: 1 2 3 4 5 6 7 8 9 10 11 12 13 14 15

000
FTUS43 KMPX 210815 AAA
TAFAXN
TAF AMD
KAXN 210815Z 2108/2206 04007KT P6SM SCT100 BKN250
     FM211200 06007KT P6SM BKN200
     FM211900 09008KT P6SM SCT200
     FM220000 VRB03KT P6SM SCT250=

USA.gov is the U.S. government's official web portal to all federal, state and local government web resources and services.